createdAt,value
2018-05-08T00:02:12.731Z,3.50
2018-05-08T00:04:40.338Z,4.33
2018-05-08T00:07:08.617Z,4.10
2018-05-08T00:09:36.136Z,3.90
2018-05-08T00:12:03.723Z,4.43
2018-05-08T00:14:31.255Z,4.00
2018-05-08T00:16:58.798Z,4.40
2018-05-08T00:19:26.337Z,3.77
2018-05-08T00:21:54.674Z,4.57
2018-05-08T00:24:22.213Z,5.93
2018-05-08T00:26:49.763Z,6.40
2018-05-08T00:29:17.302Z,6.10
2018-05-08T00:31:44.846Z,7.30
2018-05-08T00:34:13.159Z,7.30
2018-05-08T00:36:40.684Z,8.30
2018-05-08T00:39:08.994Z,8.50
2018-05-08T00:41:36.559Z,9.23
2018-05-08T00:44:04.105Z,8.80
2018-05-08T00:46:31.642Z,8.47
2018-05-08T00:48:59.942Z,7.50
2018-05-08T00:51:27.489Z,6.30
2018-05-08T00:53:55.111Z,5.77
2018-05-08T00:56:22.646Z,6.63
2018-05-08T00:58:50.220Z,5.17
2018-05-08T01:01:17.786Z,5.37
2018-05-08T01:03:45.339Z,5.63
2018-05-08T01:06:12.895Z,4.33
2018-05-08T01:08:40.420Z,5.23
2018-05-08T01:11:07.986Z,5.20
2018-05-08T01:13:35.550Z,5.10
2018-05-08T01:16:03.171Z,5.63
2018-05-08T01:18:31.492Z,5.30
2018-05-08T01:20:59.072Z,5.40
2018-05-08T01:23:26.658Z,5.77
2018-05-08T01:25:54.978Z,6.10
2018-05-08T01:28:22.554Z,5.70
2018-05-08T01:30:50.127Z,5.50
2018-05-08T01:33:17.788Z,5.90
2018-05-08T01:35:45.331Z,5.00
2018-05-08T01:38:12.845Z,5.60
2018-05-08T01:40:41.147Z,5.93
2018-05-08T01:43:08.654Z,6.60
2018-05-08T01:45:36.366Z,5.73
2018-05-08T01:48:03.883Z,5.07
2018-05-08T01:50:32.209Z,5.40
2018-05-08T01:52:59.818Z,5.60
2018-05-08T01:55:27.375Z,4.93
2018-05-08T01:57:56.427Z,5.63
2018-05-08T02:00:24.008Z,5.37
2018-05-08T02:02:51.566Z,5.10
2018-05-08T02:05:19.133Z,4.90
2018-05-08T02:07:46.686Z,4.90
2018-05-08T02:10:14.230Z,4.83
2018-05-08T02:12:41.809Z,5.00
2018-05-08T02:15:09.361Z,4.50
2018-05-08T02:17:36.909Z,4.60
2018-05-08T02:20:04.462Z,4.60
2018-05-08T02:22:32.016Z,4.70
2018-05-08T02:24:59.546Z,5.47
2018-05-08T02:27:27.821Z,4.43
2018-05-08T02:29:56.139Z,4.87
2018-05-08T02:32:23.716Z,4.77
2018-05-08T02:34:51.279Z,5.43
2018-05-08T02:37:18.827Z,4.60
2018-05-08T02:39:46.463Z,4.50
2018-05-08T02:42:14.032Z,4.23
2018-05-08T02:44:41.593Z,6.00
2018-05-08T02:47:09.157Z,5.27
2018-05-08T02:49:36.716Z,5.50
2018-05-08T02:52:04.233Z,9.17
2018-05-08T02:54:32.529Z,5.93
2018-05-08T02:57:00.096Z,4.87
2018-05-08T02:59:27.634Z,4.67
2018-05-08T03:01:55.183Z,5.70
2018-05-08T03:04:23.517Z,5.20
2018-05-08T03:06:51.065Z,6.00
2018-05-08T03:09:18.647Z,5.70
2018-05-08T03:11:46.925Z,6.30
2018-05-08T03:14:14.480Z,5.90
2018-05-08T03:16:43.190Z,6.27
2018-05-08T03:19:11.470Z,6.10
2018-05-08T03:21:39.750Z,6.40
2018-05-08T03:24:09.632Z,6.00
2018-05-08T03:26:37.177Z,5.70
2018-05-08T03:29:04.814Z,7.00
2018-05-08T03:31:32.374Z,5.90
2018-05-08T03:33:59.935Z,6.20
2018-05-08T03:36:27.450Z,6.27
2018-05-08T03:38:55.746Z,5.97
2018-05-08T03:41:24.151Z,6.20
2018-05-08T03:43:51.658Z,6.70
2018-05-08T03:46:19.330Z,5.73
2018-05-08T03:48:46.935Z,6.73
2018-05-08T03:51:14.507Z,5.90
2018-05-08T03:53:42.179Z,7.10
2018-05-08T03:56:09.731Z,5.87
2018-05-08T03:58:37.248Z,6.13
2018-05-08T04:01:17.327Z,5.97
2018-05-08T04:03:56.723Z,5.57
2018-05-08T04:06:33.861Z,7.00
2018-05-08T04:09:01.438Z,6.00
2018-05-08T04:11:28.961Z,6.47
2018-05-08T04:13:56.494Z,6.30
2018-05-08T04:16:24.819Z,6.30
2018-05-08T04:18:52.350Z,6.20
2018-05-08T04:21:19.871Z,6.20
2018-05-08T04:23:47.508Z,5.80
2018-05-08T04:26:15.114Z,5.93
2018-05-08T04:28:42.666Z,6.17
2018-05-08T04:31:11.002Z,6.03
2018-05-08T04:33:38.574Z,5.97
2018-05-08T04:36:06.138Z,6.20
2018-05-08T04:38:33.696Z,6.00
2018-05-08T04:41:01.364Z,6.20
2018-05-08T04:43:29.003Z,6.43
2018-05-08T04:45:56.546Z,6.00
2018-05-08T04:48:24.102Z,5.87
2018-05-08T04:50:51.699Z,5.53
2018-05-08T04:53:20.004Z,5.73
2018-05-08T04:55:48.322Z,6.00
2018-05-08T04:58:15.997Z,6.60
2018-05-08T05:00:43.578Z,6.10
2018-05-08T05:03:11.138Z,6.20
2018-05-08T05:05:38.683Z,6.10
2018-05-08T05:08:06.317Z,6.33
2018-05-08T05:10:33.872Z,6.20
2018-05-08T05:13:01.457Z,5.83
2018-05-08T05:15:29.009Z,5.40
2018-05-08T05:17:56.584Z,5.93
2018-05-08T05:20:24.163Z,6.23
2018-05-08T05:22:52.487Z,5.70
2018-05-08T05:25:20.067Z,5.60
2018-05-08T05:27:47.603Z,6.03
2018-05-08T05:30:15.151Z,5.70
2018-05-08T05:32:42.734Z,6.13
2018-05-08T05:35:10.291Z,5.50
2018-05-08T05:37:37.818Z,5.20
2018-05-08T05:40:05.403Z,5.97
2018-05-08T05:42:32.969Z,6.50
2018-05-08T05:45:00.506Z,6.03
2018-05-08T05:47:28.074Z,6.43
2018-05-08T05:49:56.491Z,5.63
2018-05-08T05:52:24.052Z,4.80
2018-05-08T05:54:51.563Z,5.20
2018-05-08T05:57:19.151Z,5.37
2018-05-08T05:59:46.674Z,5.30
2018-05-08T06:02:14.262Z,5.60
2018-05-08T06:04:41.835Z,5.47
2018-05-08T06:07:09.372Z,5.77
2018-05-08T06:09:36.926Z,5.30
2018-05-08T06:12:04.464Z,4.13
2018-05-08T06:14:32.076Z,3.80
2018-05-08T06:16:59.599Z,3.70
2018-05-08T06:19:27.119Z,8.23
2018-05-08T06:21:55.430Z,3.87
2018-05-08T06:24:22.977Z,3.70
2018-05-08T06:26:50.504Z,3.83
2018-05-08T06:29:18.127Z,3.67
2018-05-08T06:31:45.711Z,4.47
2018-05-08T06:34:13.333Z,5.30
2018-05-08T06:36:40.891Z,4.90
2018-05-08T06:39:08.442Z,4.37
2018-05-08T06:41:36.025Z,5.33
2018-05-08T06:44:03.567Z,5.30
2018-05-08T06:46:31.228Z,5.67
2018-05-08T06:48:58.725Z,4.77
2018-05-08T06:51:26.274Z,4.70
2018-05-08T06:53:53.854Z,5.20
2018-05-08T06:56:21.427Z,5.23
2018-05-08T06:58:48.937Z,4.97
2018-05-08T07:01:16.524Z,5.10
2018-05-08T07:03:44.043Z,4.70
2018-05-08T07:06:11.602Z,4.30
2018-05-08T07:08:39.195Z,4.37
2018-05-08T07:11:06.759Z,4.50
2018-05-08T07:13:34.306Z,4.17
2018-05-08T07:16:01.944Z,4.30
2018-05-08T07:18:29.431Z,5.40
2018-05-08T07:20:56.950Z,4.80
2018-05-08T07:23:24.494Z,3.70
2018-05-08T07:25:52.790Z,3.80
2018-05-08T07:28:20.387Z,3.70
2018-05-08T07:30:47.937Z,3.87
2018-05-08T07:33:15.571Z,3.77
2018-05-08T07:35:43.117Z,3.40
2018-05-08T07:38:10.683Z,3.77
2018-05-08T07:40:38.244Z,3.80
2018-05-08T07:43:05.864Z,2.93
2018-05-08T07:45:33.591Z,3.57
2018-05-08T07:48:01.750Z,3.23
2018-05-08T07:50:29.305Z,2.80
2018-05-08T07:52:56.879Z,2.50
2018-05-08T07:55:24.389Z,2.70
2018-05-08T07:57:52.665Z,2.83
2018-05-08T08:00:20.218Z,3.43
2018-05-08T08:02:47.737Z,2.60
2018-05-08T08:05:15.280Z,2.90
2018-05-08T08:07:42.815Z,2.13
2018-05-08T08:10:11.133Z,2.93
2018-05-08T08:12:38.664Z,2.40
2018-05-08T08:15:06.240Z,2.90
2018-05-08T08:17:33.828Z,2.67
2018-05-08T08:20:01.397Z,2.97
2018-05-08T08:22:28.935Z,2.80
2018-05-08T08:24:56.495Z,2.40
2018-05-08T08:27:24.010Z,2.57
2018-05-08T08:29:52.339Z,3.00
2018-05-08T08:32:19.893Z,2.43
2018-05-08T08:34:47.407Z,2.27
2018-05-08T08:37:14.986Z,2.30
2018-05-08T08:39:42.513Z,2.60
2018-05-08T08:42:11.054Z,2.10
2018-05-08T08:44:38.723Z,2.20
2018-05-08T08:47:06.349Z,2.30
2018-05-08T08:49:33.867Z,2.10
2018-05-08T08:52:01.397Z,2.53
2018-05-08T08:54:28.967Z,1.93
2018-05-08T08:56:56.622Z,2.70
2018-05-08T08:59:24.263Z,2.10
2018-05-08T09:01:51.798Z,1.57
2018-05-08T09:04:19.390Z,1.90
2018-05-08T09:06:46.959Z,1.47
2018-05-08T09:09:14.598Z,1.73
2018-05-08T09:11:42.161Z,1.03
2018-05-08T09:14:09.689Z,1.27
2018-05-08T09:16:37.295Z,0.80
2018-05-08T09:19:04.842Z,1.20
2018-05-08T09:21:32.404Z,1.00
2018-05-08T09:23:59.965Z,1.23
2018-05-08T09:26:27.550Z,1.00
2018-05-08T09:28:55.202Z,0.83
2018-05-08T09:31:22.742Z,0.80
2018-05-08T09:33:50.273Z,0.80
2018-05-08T09:36:17.817Z,0.67
2018-05-08T09:38:46.126Z,0.83
2018-05-08T09:41:13.691Z,0.80
2018-05-08T09:43:41.209Z,0.90
2018-05-08T09:46:09.587Z,0.90
2018-05-08T09:48:37.920Z,0.90
2018-05-08T09:51:05.554Z,0.90
2018-05-08T09:53:33.069Z,0.70
2018-05-08T09:56:00.669Z,0.90
2018-05-08T09:58:28.197Z,1.00
2018-05-08T10:00:56.522Z,0.80
2018-05-08T10:03:24.033Z,0.90
2018-05-08T10:05:52.361Z,0.80
2018-05-08T10:08:20.046Z,0.80
2018-05-08T10:10:47.704Z,1.00
2018-05-08T10:13:16.000Z,0.80
2018-05-08T10:15:44.322Z,0.70
2018-05-08T10:18:11.861Z,1.10
2018-05-08T10:20:40.246Z,0.80
2018-05-08T10:23:08.523Z,1.20
2018-05-08T10:25:36.059Z,1.10
2018-05-08T10:28:04.351Z,1.03
2018-05-08T10:30:32.753Z,1.23
2018-05-08T10:33:00.341Z,1.40
2018-05-08T10:35:27.874Z,1.60
2018-05-08T10:37:55.462Z,1.37
2018-05-08T10:40:23.035Z,1.40
2018-05-08T10:42:50.792Z,1.47
2018-05-08T10:45:19.171Z,1.37
2018-05-08T10:47:46.706Z,1.30
2018-05-08T10:50:14.266Z,1.77
2018-05-08T10:52:41.811Z,2.20
2018-05-08T10:55:09.363Z,1.70
2018-05-08T10:57:36.874Z,2.13
2018-05-08T11:00:04.413Z,2.17
2018-05-08T11:02:31.955Z,1.70
2018-05-08T11:04:59.502Z,1.93
2018-05-08T11:07:27.057Z,1.60
2018-05-08T11:09:54.616Z,2.10
2018-05-08T11:12:22.181Z,1.53
2018-05-08T11:14:50.457Z,1.80
2018-05-08T11:17:17.999Z,1.70
2018-05-08T11:19:45.632Z,1.30
2018-05-08T11:22:13.138Z,1.67
2018-05-08T11:24:40.730Z,1.57
2018-05-08T11:27:08.241Z,2.17
2018-05-08T11:29:35.811Z,1.67
2018-05-08T11:32:03.371Z,1.77
2018-05-08T11:34:30.935Z,1.47
2018-05-08T11:36:58.458Z,1.30
2018-05-08T11:39:26.828Z,1.87
2018-05-08T11:41:54.364Z,1.70
2018-05-08T11:44:22.015Z,2.60
2018-05-08T11:46:49.651Z,1.83
2018-05-08T11:49:17.222Z,1.53
2018-05-08T11:51:44.926Z,1.90
2018-05-08T11:54:13.263Z,1.90
2018-05-08T11:56:40.840Z,2.00
2018-05-08T11:59:08.444Z,1.63
2018-05-08T12:01:36.035Z,1.50
2018-05-08T12:04:03.612Z,2.33
2018-05-08T12:06:31.195Z,2.30
2018-05-08T12:08:58.774Z,1.80
2018-05-08T12:11:27.168Z,1.43
2018-05-08T12:13:54.736Z,1.90
2018-05-08T12:16:22.282Z,1.93
2018-05-08T12:18:49.920Z,1.70
2018-05-08T12:21:18.270Z,2.17
2018-05-08T12:23:45.854Z,1.80
2018-05-08T12:26:13.471Z,2.60
2018-05-08T12:28:41.034Z,1.50
2018-05-08T12:31:08.615Z,2.00
2018-05-08T12:33:36.190Z,2.10
2018-05-08T12:36:03.784Z,2.20
2018-05-08T12:38:31.392Z,2.30
2018-05-08T12:40:58.972Z,2.00
2018-05-08T12:43:26.558Z,2.20
2018-05-08T12:45:54.229Z,2.17
2018-05-08T12:48:21.808Z,1.60
2018-05-08T12:50:49.412Z,1.80
2018-05-08T12:53:16.963Z,2.13
2018-05-08T12:55:45.307Z,2.73
2018-05-08T12:58:12.867Z,2.03
2018-05-08T13:00:40.438Z,2.13
2018-05-08T13:03:08.036Z,1.83
2018-05-08T13:05:36.396Z,1.97
2018-05-08T13:08:03.944Z,2.10
2018-05-08T13:10:31.521Z,1.97
2018-05-08T13:12:59.163Z,1.63
2018-05-08T13:15:26.706Z,1.90
2018-05-08T13:17:54.256Z,1.50
2018-05-08T13:20:21.863Z,1.50
2018-05-08T13:22:49.436Z,2.00
2018-05-08T13:25:17.784Z,2.03
2018-05-08T13:27:45.348Z,1.70
2018-05-08T13:30:12.890Z,1.50
2018-05-08T13:32:40.492Z,2.00
2018-05-08T13:35:08.837Z,2.00
2018-05-08T13:37:36.411Z,1.87
2018-05-08T13:40:04.024Z,1.70
2018-05-08T13:42:31.601Z,2.00
2018-05-08T13:44:59.223Z,2.30
2018-05-08T13:47:26.840Z,2.07
2018-05-08T13:49:54.378Z,1.73
2018-05-08T13:52:21.947Z,1.93
2018-05-08T13:54:49.564Z,2.27
2018-05-08T13:57:17.177Z,2.10
2018-05-08T13:59:44.787Z,2.30
2018-05-08T14:02:12.380Z,1.93
2018-05-08T14:04:39.987Z,2.10
2018-05-08T14:07:08.333Z,2.50
2018-05-08T14:09:35.955Z,2.00
2018-05-08T14:12:03.552Z,3.03
2018-05-08T14:14:31.136Z,2.20
2018-05-08T14:16:58.723Z,2.17
2018-05-08T14:19:26.395Z,2.63
2018-05-08T14:21:53.994Z,2.43
2018-05-08T14:24:21.581Z,2.00
2018-05-08T14:26:49.127Z,2.10
2018-05-08T14:29:16.691Z,2.30
2018-05-08T14:31:44.412Z,2.27
2018-05-08T14:34:11.926Z,3.00
2018-05-08T14:36:39.488Z,2.10
2018-05-08T14:39:07.811Z,2.00
2018-05-08T14:41:35.401Z,1.57
2018-05-08T14:44:03.012Z,1.90
2018-05-08T14:46:30.591Z,2.27
2018-05-08T14:48:58.168Z,2.37
2018-05-08T14:51:25.735Z,3.00
2018-05-08T14:53:53.281Z,2.00
2018-05-08T14:56:20.962Z,2.43
2018-05-08T14:58:48.596Z,1.80
2018-05-08T15:01:16.180Z,2.40
2018-05-08T15:03:43.773Z,2.60
2018-05-08T15:06:11.381Z,2.30
2018-05-08T15:08:38.997Z,2.07
2018-05-08T15:11:07.435Z,2.53
2018-05-08T15:13:35.008Z,2.10
2018-05-08T15:16:02.616Z,2.03
2018-05-08T15:18:30.212Z,2.10
2018-05-08T15:20:57.835Z,2.50
2018-05-08T15:23:25.388Z,2.10
2018-05-08T15:25:53.043Z,2.60
2018-05-08T15:28:20.611Z,2.10
2018-05-08T15:30:48.204Z,2.00
2018-05-08T15:33:15.887Z,2.10
2018-05-08T15:35:43.486Z,2.60
2018-05-08T15:38:11.041Z,2.50
2018-05-08T15:40:39.410Z,1.93
2018-05-08T15:43:07.793Z,2.73
2018-05-08T15:45:36.287Z,2.70
2018-05-08T15:48:03.931Z,2.40
2018-05-08T15:50:32.300Z,2.40
2018-05-08T15:52:59.972Z,2.30
2018-05-08T15:55:28.314Z,2.53
2018-05-08T15:57:55.855Z,2.27
2018-05-08T16:00:23.408Z,2.50
2018-05-08T16:02:50.971Z,2.97
2018-05-08T16:05:18.517Z,3.07
2018-05-08T16:07:46.935Z,2.47
2018-05-08T16:10:14.508Z,3.10
2018-05-08T16:12:42.185Z,2.47
2018-05-08T16:15:10.556Z,1.93
2018-05-08T16:17:38.145Z,2.43
2018-05-08T16:20:05.794Z,2.23
2018-05-08T16:22:34.144Z,3.20
2018-05-08T16:25:01.900Z,2.53
2018-05-08T16:27:29.451Z,2.20
2018-05-08T16:29:57.051Z,2.40
2018-05-08T16:32:25.393Z,2.90
2018-05-08T16:34:52.971Z,2.50
2018-05-08T16:37:20.555Z,2.80
2018-05-08T16:39:48.961Z,2.57
2018-05-08T16:42:16.584Z,3.07
2018-05-08T16:44:44.944Z,2.50
2018-05-08T16:47:12.628Z,2.47
2018-05-08T16:49:40.215Z,2.27
2018-05-08T16:52:07.808Z,2.53
2018-05-08T16:54:35.453Z,2.60
2018-05-08T16:57:03.040Z,2.93
2018-05-08T16:59:30.591Z,7.80
2018-05-08T17:01:58.262Z,3.90
2018-05-08T17:04:25.802Z,2.70
2018-05-08T17:06:53.473Z,3.20
2018-05-08T17:09:21.092Z,2.67
2018-05-08T17:11:48.659Z,2.53
2018-05-08T17:14:16.268Z,3.27
2018-05-08T17:16:43.922Z,3.13
2018-05-08T17:19:11.505Z,3.00
2018-05-08T17:21:39.036Z,2.63
2018-05-08T17:24:06.599Z,3.20
2018-05-08T17:26:34.227Z,3.40
2018-05-08T17:29:01.885Z,3.10
2018-05-08T17:31:29.702Z,3.53
2018-05-08T17:33:58.795Z,3.13
2018-05-08T17:36:26.472Z,2.87
2018-05-08T17:38:54.799Z,2.40
2018-05-08T17:41:22.368Z,3.33
2018-05-08T17:43:49.977Z,3.00
2018-05-08T17:46:18.468Z,3.50
2018-05-08T17:48:46.055Z,3.30
2018-05-08T17:51:13.640Z,2.60
2018-05-08T17:53:41.311Z,3.00
2018-05-08T17:56:09.027Z,2.00
2018-05-08T17:58:36.622Z,2.73
2018-05-08T18:01:04.205Z,2.20
2018-05-08T18:03:31.787Z,2.90
2018-05-08T18:06:00.095Z,2.50
2018-05-08T18:08:27.782Z,2.43
2018-05-08T18:10:55.328Z,2.40
2018-05-08T18:13:22.903Z,2.47
2018-05-08T18:15:50.467Z,2.90
2018-05-08T18:18:18.136Z,2.40
2018-05-08T18:20:45.712Z,3.00
2018-05-08T18:23:14.052Z,2.53
2018-05-08T18:25:41.841Z,2.33
2018-05-08T18:28:09.366Z,2.50
2018-05-08T18:30:36.971Z,2.40
2018-05-08T18:33:05.330Z,2.90
2018-05-08T18:35:32.893Z,2.77
2018-05-08T18:38:00.474Z,4.20
2018-05-08T18:40:28.955Z,6.90
2018-05-08T18:42:57.333Z,6.40
2018-05-08T18:45:25.707Z,3.90
2018-05-08T18:47:54.060Z,3.00
2018-05-08T18:50:21.629Z,2.73
2018-05-08T18:52:49.236Z,2.47
2018-05-08T18:55:16.861Z,2.80
2018-05-08T18:57:44.549Z,2.23
2018-05-08T19:00:17.902Z,2.10
2018-05-08T19:02:45.507Z,2.60
2018-05-08T19:05:13.135Z,2.60
2018-05-08T19:07:40.683Z,1.83
2018-05-08T19:10:08.294Z,2.90
2018-05-08T19:12:35.863Z,2.40
2018-05-08T19:15:09.060Z,2.17
2018-05-08T19:17:36.679Z,2.60
2018-05-08T19:20:06.469Z,2.50
2018-05-08T19:22:34.057Z,2.93
2018-05-08T19:25:02.434Z,4.00
2018-05-08T19:27:30.834Z,2.50
2018-05-08T19:30:04.201Z,2.80
2018-05-08T19:32:32.596Z,2.57
2018-05-08T19:35:05.930Z,3.10
2018-05-08T19:37:39.217Z,2.90
2018-05-08T19:40:06.845Z,2.47
2018-05-08T19:42:34.446Z,2.70
2018-05-08T19:45:02.082Z,2.37
2018-05-08T19:47:29.675Z,2.53
2018-05-08T19:49:57.233Z,3.00
2018-05-08T19:52:24.815Z,2.40
2018-05-08T19:54:53.183Z,3.03
2018-05-08T19:57:20.756Z,2.87
2018-05-08T19:59:48.476Z,3.20
2018-05-08T20:02:16.084Z,2.93
2018-05-08T20:04:43.762Z,2.80
2018-05-08T20:07:12.112Z,3.07
2018-05-08T20:09:39.791Z,3.20
2018-05-08T20:12:08.103Z,3.70
2018-05-08T20:14:35.729Z,3.60
2018-05-08T20:17:04.147Z,2.77
2018-05-08T20:19:31.841Z,3.33
2018-05-08T20:21:59.403Z,3.50
2018-05-08T20:24:26.960Z,4.17
2018-05-08T20:26:54.653Z,3.60
2018-05-08T20:29:22.975Z,3.53
2018-05-08T20:31:50.572Z,3.60
2018-05-08T20:34:18.124Z,3.30
2018-05-08T20:36:45.696Z,3.00
2018-05-08T20:39:14.019Z,2.90
2018-05-08T20:41:41.617Z,3.53
2018-05-08T20:44:09.223Z,3.33
2018-05-08T20:46:36.818Z,3.23
2018-05-08T20:49:04.449Z,3.40
2018-05-08T20:51:31.964Z,3.90
2018-05-08T20:53:59.518Z,3.60
2018-05-08T20:56:27.155Z,3.80
2018-05-08T20:58:54.743Z,3.70
2018-05-08T21:01:22.475Z,4.00
2018-05-08T21:03:49.954Z,3.50
2018-05-08T21:06:17.580Z,3.77
2018-05-08T21:08:45.210Z,3.80
2018-05-08T21:11:13.696Z,4.20
2018-05-08T21:13:42.009Z,3.57
2018-05-08T21:16:09.643Z,3.07
2018-05-08T21:18:37.985Z,3.10
2018-05-08T21:21:05.602Z,3.60
2018-05-08T21:23:33.234Z,3.53
2018-05-08T21:26:01.598Z,3.90
2018-05-08T21:28:35.758Z,3.30
2018-05-08T21:31:09.056Z,3.60
2018-05-08T21:33:36.647Z,3.57
2018-05-08T21:36:04.235Z,3.13
2018-05-08T21:38:32.581Z,2.87
2018-05-08T21:41:00.171Z,3.70
2018-05-08T21:43:28.559Z,3.30
2018-05-08T21:45:56.881Z,2.97
2018-05-08T21:48:24.469Z,3.10
2018-05-08T21:50:52.119Z,3.77
2018-05-08T21:53:19.680Z,3.83
2018-05-08T21:55:47.236Z,3.60
2018-05-08T21:58:14.936Z,4.17
2018-05-08T22:00:43.287Z,3.93
2018-05-08T22:03:10.918Z,4.07
2018-05-08T22:05:38.509Z,3.80
2018-05-08T22:08:06.105Z,3.47
2018-05-08T22:10:33.720Z,4.37
2018-05-08T22:13:01.302Z,3.90
2018-05-08T22:15:29.639Z,3.90
2018-05-08T22:17:57.243Z,3.97
2018-05-08T22:20:25.579Z,4.10
2018-05-08T22:22:53.183Z,4.23
2018-05-08T22:25:21.555Z,3.63
2018-05-08T22:27:49.884Z,3.67
2018-05-08T22:30:17.541Z,3.60
2018-05-08T22:32:45.122Z,4.00
2018-05-08T22:35:12.738Z,3.57
2018-05-08T22:37:40.350Z,4.07
2018-05-08T22:40:07.913Z,4.40
2018-05-08T22:42:35.556Z,5.10
2018-05-08T22:45:03.127Z,4.33
2018-05-08T22:47:30.712Z,4.73
2018-05-08T22:49:58.302Z,4.73
2018-05-08T22:52:25.923Z,4.40
2018-05-08T22:54:53.544Z,4.27
2018-05-08T22:57:21.116Z,3.73
2018-05-08T22:59:48.719Z,3.50
2018-05-08T23:02:17.109Z,4.00
2018-05-08T23:04:45.451Z,3.80
2018-05-08T23:07:13.011Z,3.67
2018-05-08T23:09:40.585Z,3.30
2018-05-08T23:12:09.024Z,4.20
2018-05-08T23:14:36.620Z,3.67
2018-05-08T23:17:04.174Z,3.73
2018-05-08T23:19:31.826Z,3.30
2018-05-08T23:21:59.429Z,4.30
2018-05-08T23:24:27.783Z,3.90
2018-05-08T23:26:55.397Z,3.40
2018-05-08T23:29:23.008Z,3.40
2018-05-08T23:31:50.551Z,3.40
2018-05-08T23:34:18.248Z,3.97
2018-05-08T23:36:46.555Z,3.70
2018-05-08T23:39:14.131Z,3.50
2018-05-08T23:41:41.797Z,3.10
2018-05-08T23:44:09.417Z,3.90
2018-05-08T23:46:37.025Z,4.07
2018-05-08T23:49:04.582Z,3.17
2018-05-08T23:51:32.240Z,3.27
2018-05-08T23:53:59.828Z,3.87
2018-05-08T23:56:27.394Z,3.70
2018-05-08T23:58:55.064Z,3.60
